Kezdőlap
METAR-TAF:

METAR-TAF

Repülőterek :

Kota Kinabalu, Malajzia

földrajzi szélesség: 05-56N, földrajzi hosszúság: 116-03E, magasság: 3 m

Jelenlegi meteorológiai megfigyelések

A jelentés 40 perccel ezelõtt készült, 19:00 UTC
Különbözõ irányokból fújó szél 3 kt
Hőmérséklet 25°C
Páratartalom 89%
Légköri nyomás 1010 hPa
Látótávolság 10 km, vagy több
Kevés felhő 1500 lábon
Szórványos felhőzet 14000 lábon
Szakadozott felhőzet 27000 lábon

METAR: WBKK 171900Z VRB03KT 9999 FEW015 SCT140 BKN270 25/23 Q1010 NOSIG

Idő: 03:40 (19:40 UTC)

Előrejelzés

A jelentés 2 órával és 40 perccel ezelõtt készült, 17:00 UTC
Az előrejelzés 17-én 18 óra UTC és 18-én 18 óra UTC között érvényes
Kelet-délkeleti szél 5 kt
Látótávolság 10 km, vagy több
Kevés felhő 1400 lábon

TAF: WBKK 171700Z 1718/1818 12005KT 9999 FEW014

Meteorológiai megfigyelések és előrejelzések több, mint 4000 repülőtéren (METAR és TAF jelentéseket).

A térképen piros és sárga pontok jelzik az elérhető meteorológiai állomásokat.

Mozgassa az egeret a pont fölött, hogy megjelenjen az állomás neve.

Azután kattintson az időjárási megfigyelések és előrejelzések megtekintéséhez.

A térkép megváltoztatása: kattintson a fekete keresztel jelölt zöld gombra ráközelítéshez, a vonallal jelölt zöld gombra távolításhoz, vagy a zöld nyilakra a szomszédos térképek eléréséhez.


METAR-TAF: